sensor_id;sensor_type;location;lat;lon;timestamp;temperature;humidity
69084;SHT31;56185;48.526;9.044;2023-09-19T00:01:35;17.04;86.26
69084;SHT31;56185;48.526;9.044;2023-09-19T00:04:01;17.11;86.31
69084;SHT31;56185;48.526;9.044;2023-09-19T00:06:29;17.14;86.22
69084;SHT31;56185;48.526;9.044;2023-09-19T00:08:55;17.08;86.04
69084;SHT31;56185;48.526;9.044;2023-09-19T00:11:20;17.04;85.72
69084;SHT31;56185;48.526;9.044;2023-09-19T00:13:47;17.15;85.71
69084;SHT31;56185;48.526;9.044;2023-09-19T00:16:12;17.07;85.69
69084;SHT31;56185;48.526;9.044;2023-09-19T00:18:38;17.32;84.27
69084;SHT31;56185;48.526;9.044;2023-09-19T00:21:03;17.40;83.93
69084;SHT31;56185;48.526;9.044;2023-09-19T00:23:29;17.42;84.05
69084;SHT31;56185;48.526;9.044;2023-09-19T00:26:01;17.42;84.76
69084;SHT31;56185;48.526;9.044;2023-09-19T00:28:27;17.32;85.72
69084;SHT31;56185;48.526;9.044;2023-09-19T00:30:52;17.36;84.95
69084;SHT31;56185;48.526;9.044;2023-09-19T00:33:18;17.45;84.76
69084;SHT31;56185;48.526;9.044;2023-09-19T00:38:12;17.47;84.39
69084;SHT31;56185;48.526;9.044;2023-09-19T00:40:38;17.43;84.10
69084;SHT31;56185;48.526;9.044;2023-09-19T00:43:03;17.40;84.54
69084;SHT31;56185;48.526;9.044;2023-09-19T00:45:29;17.39;84.66
69084;SHT31;56185;48.526;9.044;2023-09-19T00:47:54;17.38;83.98
69084;SHT31;56185;48.526;9.044;2023-09-19T00:50:23;17.29;84.14
69084;SHT31;56185;48.526;9.044;2023-09-19T00:52:53;17.29;84.30
69084;SHT31;56185;48.526;9.044;2023-09-19T00:55:19;17.40;83.68
69084;SHT31;56185;48.526;9.044;2023-09-19T00:57:45;17.38;83.70
69084;SHT31;56185;48.526;9.044;2023-09-19T01:00:11;17.46;83.71
69084;SHT31;56185;48.526;9.044;2023-09-19T01:02:37;17.45;83.10
69084;SHT31;56185;48.526;9.044;2023-09-19T01:05:03;17.40;83.58
69084;SHT31;56185;48.526;9.044;2023-09-19T01:07:30;17.46;83.25
69084;SHT31;56185;48.526;9.044;2023-09-19T01:09:57;17.42;83.55
69084;SHT31;56185;48.526;9.044;2023-09-19T01:12:30;17.38;83.47
69084;SHT31;56185;48.526;9.044;2023-09-19T01:15:09;17.36;84.63
69084;SHT31;56185;48.526;9.044;2023-09-19T01:17:53;17.35;83.84
69084;SHT31;56185;48.526;9.044;2023-09-19T01:23:05;17.23;83.69
69084;SHT31;56185;48.526;9.044;2023-09-19T01:28:54;17.11;84.28
69084;SHT31;56185;48.526;9.044;2023-09-19T01:31:28;17.12;84.18
69084;SHT31;56185;48.526;9.044;2023-09-19T01:33:59;17.09;83.51
69084;SHT31;56185;48.526;9.044;2023-09-19T01:36:30;17.14;83.39
69084;SHT31;56185;48.526;9.044;2023-09-19T01:38:57;17.07;83.64
69084;SHT31;56185;48.526;9.044;2023-09-19T01:41:33;17.08;83.10
69084;SHT31;56185;48.526;9.044;2023-09-19T01:44:05;17.00;83.31
69084;SHT31;56185;48.526;9.044;2023-09-19T01:46:36;16.96;83.50
69084;SHT31;56185;48.526;9.044;2023-09-19T01:52:31;17.02;83.88
69084;SHT31;56185;48.526;9.044;2023-09-19T01:54:41;17.00;84.04
69084;SHT31;56185;48.526;9.044;2023-09-19T01:57:16;17.00;83.99
69084;SHT31;56185;48.526;9.044;2023-09-19T01:59:48;17.07;84.14
69084;SHT31;56185;48.526;9.044;2023-09-19T02:02:16;16.98;84.50
69084;SHT31;56185;48.526;9.044;2023-09-19T02:04:42;16.96;83.99
69084;SHT31;56185;48.526;9.044;2023-09-19T02:07:07;16.96;84.21
69084;SHT31;56185;48.526;9.044;2023-09-19T02:09:33;16.98;84.01
69084;SHT31;56185;48.526;9.044;2023-09-19T02:11:58;16.88;84.43
69084;SHT31;56185;48.526;9.044;2023-09-19T02:14:23;16.81;84.61
69084;SHT31;56185;48.526;9.044;2023-09-19T02:16:48;16.81;84.26
69084;SHT31;56185;48.526;9.044;2023-09-19T02:19:13;16.84;84.44
69084;SHT31;56185;48.526;9.044;2023-09-19T02:21:40;16.88;84.36
69084;SHT31;56185;48.526;9.044;2023-09-19T02:24:06;16.87;83.85
69084;SHT31;56185;48.526;9.044;2023-09-19T02:26:31;16.98;83.64
69084;SHT31;56185;48.526;9.044;2023-09-19T02:28:56;16.78;84.46
69084;SHT31;56185;48.526;9.044;2023-09-19T02:31:21;16.80;84.11
69084;SHT31;56185;48.526;9.044;2023-09-19T02:33:47;16.80;84.66
69084;SHT31;56185;48.526;9.044;2023-09-19T02:36:12;16.78;83.97
69084;SHT31;56185;48.526;9.044;2023-09-19T02:38:37;16.81;84.28
69084;SHT31;56185;48.526;9.044;2023-09-19T02:41:03;16.77;83.84
69084;SHT31;56185;48.526;9.044;2023-09-19T02:43:28;16.78;84.28
69084;SHT31;56185;48.526;9.044;2023-09-19T02:45:53;16.72;84.15
69084;SHT31;56185;48.526;9.044;2023-09-19T02:48:19;16.65;84.48
69084;SHT31;56185;48.526;9.044;2023-09-19T02:50:44;16.70;84.29
69084;SHT31;56185;48.526;9.044;2023-09-19T02:53:10;16.88;83.53
69084;SHT31;56185;48.526;9.044;2023-09-19T02:55:35;16.70;84.90
69084;SHT31;56185;48.526;9.044;2023-09-19T02:58:00;16.70;84.70
69084;SHT31;56185;48.526;9.044;2023-09-19T03:00:26;16.70;83.53
69084;SHT31;56185;48.526;9.044;2023-09-19T03:02:53;16.70;84.08
69084;SHT31;56185;48.526;9.044;2023-09-19T03:05:20;16.75;84.26
69084;SHT31;56185;48.526;9.044;2023-09-19T03:07:46;16.81;84.48
69084;SHT31;56185;48.526;9.044;2023-09-19T03:10:12;16.78;84.51
69084;SHT31;56185;48.526;9.044;2023-09-19T03:12:37;16.74;84.30
69084;SHT31;56185;48.526;9.044;2023-09-19T03:15:03;16.77;84.51
69084;SHT31;56185;48.526;9.044;2023-09-19T03:17:28;16.85;85.44
69084;SHT31;56185;48.526;9.044;2023-09-19T03:19:54;16.74;85.47
69084;SHT31;56185;48.526;9.044;2023-09-19T03:22:20;16.72;85.67
69084;SHT31;56185;48.526;9.044;2023-09-19T03:24:45;16.78;85.33
69084;SHT31;56185;48.526;9.044;2023-09-19T03:27:10;16.78;85.84
69084;SHT31;56185;48.526;9.044;2023-09-19T03:29:36;16.75;85.85
69084;SHT31;56185;48.526;9.044;2023-09-19T03:32:01;16.88;85.49
69084;SHT31;56185;48.526;9.044;2023-09-19T03:34:26;16.89;85.26
69084;SHT31;56185;48.526;9.044;2023-09-19T03:36:52;16.82;85.53
69084;SHT31;56185;48.526;9.044;2023-09-19T03:39:18;16.89;85.47
69084;SHT31;56185;48.526;9.044;2023-09-19T03:41:43;16.95;84.79
69084;SHT31;56185;48.526;9.044;2023-09-19T03:44:08;17.04;85.55
69084;SHT31;56185;48.526;9.044;2023-09-19T03:46:34;16.96;84.96
69084;SHT31;56185;48.526;9.044;2023-09-19T03:48:59;17.08;83.81
69084;SHT31;56185;48.526;9.044;2023-09-19T03:51:25;17.12;84.24
69084;SHT31;56185;48.526;9.044;2023-09-19T03:53:50;17.05;84.63
69084;SHT31;56185;48.526;9.044;2023-09-19T03:56:16;17.04;83.92
69084;SHT31;56185;48.526;9.044;2023-09-19T03:58:42;17.02;85.29
69084;SHT31;56185;48.526;9.044;2023-09-19T04:01:11;17.02;84.60
69084;SHT31;56185;48.526;9.044;2023-09-19T04:04:05;17.05;85.71
69084;SHT31;56185;48.526;9.044;2023-09-19T04:06:39;16.89;87.05
69084;SHT31;56185;48.526;9.044;2023-09-19T04:09:04;16.81;87.55
69084;SHT31;56185;48.526;9.044;2023-09-19T04:11:30;16.77;87.87
69084;SHT31;56185;48.526;9.044;2023-09-19T04:13:55;16.72;87.46
69084;SHT31;56185;48.526;9.044;2023-09-19T04:16:23;16.75;87.63
69084;SHT31;56185;48.526;9.044;2023-09-19T04:18:55;16.68;87.51
69084;SHT31;56185;48.526;9.044;2023-09-19T04:21:20;16.63;88.00
69084;SHT31;56185;48.526;9.044;2023-09-19T04:23:48;16.63;87.65
69084;SHT31;56185;48.526;9.044;2023-09-19T04:26:13;16.54;88.20
69084;SHT31;56185;48.526;9.044;2023-09-19T04:28:38;16.63;87.72
69084;SHT31;56185;48.526;9.044;2023-09-19T04:31:26;16.49;88.13
69084;SHT31;56185;48.526;9.044;2023-09-19T04:33:51;16.46;88.11
69084;SHT31;56185;48.526;9.044;2023-09-19T04:36:17;16.41;87.54
69084;SHT31;56185;48.526;9.044;2023-09-19T04:38:42;16.37;87.44
69084;SHT31;56185;48.526;9.044;2023-09-19T04:41:19;16.33;87.54
69084;SHT31;56185;48.526;9.044;2023-09-19T04:43:44;16.34;87.84
69084;SHT31;56185;48.526;9.044;2023-09-19T04:46:09;16.24;87.87
69084;SHT31;56185;48.526;9.044;2023-09-19T04:48:34;16.27;88.40
69084;SHT31;56185;48.526;9.044;2023-09-19T04:51:08;16.30;88.36
69084;SHT31;56185;48.526;9.044;2023-09-19T04:53:34;16.27;88.77
69084;SHT31;56185;48.526;9.044;2023-09-19T04:55:59;16.29;88.33
69084;SHT31;56185;48.526;9.044;2023-09-19T04:58:24;16.32;88.43
69084;SHT31;56185;48.526;9.044;2023-09-19T05:00:49;16.33;87.95
69084;SHT31;56185;48.526;9.044;2023-09-19T05:03:15;16.51;88.16
69084;SHT31;56185;48.526;9.044;2023-09-19T05:05:40;16.44;88.46
69084;SHT31;56185;48.526;9.044;2023-09-19T05:08:05;16.36;88.22
69084;SHT31;56185;48.526;9.044;2023-09-19T05:10:34;16.46;87.68
69084;SHT31;56185;48.526;9.044;2023-09-19T05:12:59;16.40;88.72
69084;SHT31;56185;48.526;9.044;2023-09-19T05:15:24;16.46;88.35
69084;SHT31;56185;48.526;9.044;2023-09-19T05:17:57;16.47;88.25
69084;SHT31;56185;48.526;9.044;2023-09-19T05:20:50;16.50;88.37
69084;SHT31;56185;48.526;9.044;2023-09-19T05:23:15;16.57;87.67
69084;SHT31;56185;48.526;9.044;2023-09-19T05:25:40;16.44;87.86
69084;SHT31;56185;48.526;9.044;2023-09-19T05:28:07;16.54;87.71
69084;SHT31;56185;48.526;9.044;2023-09-19T05:30:33;16.56;87.73
69084;SHT31;56185;48.526;9.044;2023-09-19T05:32:58;16.65;87.15
69084;SHT31;56185;48.526;9.044;2023-09-19T05:35:24;16.64;87.51
69084;SHT31;56185;48.526;9.044;2023-09-19T05:37:51;16.67;86.66
69084;SHT31;56185;48.526;9.044;2023-09-19T05:40:17;16.67;87.19
69084;SHT31;56185;48.526;9.044;2023-09-19T05:42:42;16.75;87.06
69084;SHT31;56185;48.526;9.044;2023-09-19T05:45:08;16.89;86.83
69084;SHT31;56185;48.526;9.044;2023-09-19T05:47:33;16.95;86.05
69084;SHT31;56185;48.526;9.044;2023-09-19T05:50:02;16.95;86.75
69084;SHT31;56185;48.526;9.044;2023-09-19T05:52:27;17.05;86.55
69084;SHT31;56185;48.526;9.044;2023-09-19T05:54:52;17.05;85.19
69084;SHT31;56185;48.526;9.044;2023-09-19T05:57:17;17.07;85.96
69084;SHT31;56185;48.526;9.044;2023-09-19T05:59:43;17.07;84.99
69084;SHT31;56185;48.526;9.044;2023-09-19T06:02:08;17.00;86.31
69084;SHT31;56185;48.526;9.044;2023-09-19T06:04:33;17.01;84.59
69084;SHT31;56185;48.526;9.044;2023-09-19T06:06:59;17.01;84.67
69084;SHT31;56185;48.526;9.044;2023-09-19T06:09:24;17.01;84.60
69084;SHT31;56185;48.526;9.044;2023-09-19T06:11:52;16.96;84.62
69084;SHT31;56185;48.526;9.044;2023-09-19T06:14:17;16.94;84.52
69084;SHT31;56185;48.526;9.044;2023-09-19T06:16:43;16.95;85.81
69084;SHT31;56185;48.526;9.044;2023-09-19T06:19:08;16.94;85.96
69084;SHT31;56185;48.526;9.044;2023-09-19T06:21:33;16.81;86.18
69084;SHT31;56185;48.526;9.044;2023-09-19T06:23:58;16.74;86.60
69084;SHT31;56185;48.526;9.044;2023-09-19T06:26:24;16.74;86.34
69084;SHT31;56185;48.526;9.044;2023-09-19T06:28:49;16.84;86.01
69084;SHT31;56185;48.526;9.044;2023-09-19T06:31:14;16.84;86.42
69084;SHT31;56185;48.526;9.044;2023-09-19T06:33:39;16.80;86.64
69084;SHT31;56185;48.526;9.044;2023-09-19T06:36:06;16.82;86.55
69084;SHT31;56185;48.526;9.044;2023-09-19T06:38:31;16.91;86.16
69084;SHT31;56185;48.526;9.044;2023-09-19T06:40:57;16.88;87.45
69084;SHT31;56185;48.526;9.044;2023-09-19T06:43:23;16.98;86.98
69084;SHT31;56185;48.526;9.044;2023-09-19T06:45:48;17.09;85.96
69084;SHT31;56185;48.526;9.044;2023-09-19T06:48:13;17.04;85.72
69084;SHT31;56185;48.526;9.044;2023-09-19T06:50:38;17.15;86.51
69084;SHT31;56185;48.526;9.044;2023-09-19T06:53:04;17.23;85.79
69084;SHT31;56185;48.526;9.044;2023-09-19T06:55:29;17.26;86.58
69084;SHT31;56185;48.526;9.044;2023-09-19T06:57:54;17.26;85.56
69084;SHT31;56185;48.526;9.044;2023-09-19T07:00:20;17.26;86.58
69084;SHT31;56185;48.526;9.044;2023-09-19T07:02:54;17.32;85.62
69084;SHT31;56185;48.526;9.044;2023-09-19T07:05:20;17.43;85.90
69084;SHT31;56185;48.526;9.044;2023-09-19T07:07:45;17.47;84.83
69084;SHT31;56185;48.526;9.044;2023-09-19T07:10:10;17.56;85.27
69084;SHT31;56185;48.526;9.044;2023-09-19T07:12:35;17.54;85.29
69084;SHT31;56185;48.526;9.044;2023-09-19T07:15:01;17.57;85.18
69084;SHT31;56185;48.526;9.044;2023-09-19T07:17:26;17.63;84.57
69084;SHT31;56185;48.526;9.044;2023-09-19T07:19:57;17.74;84.42
69084;SHT31;56185;48.526;9.044;2023-09-19T07:22:22;17.87;83.62
69084;SHT31;56185;48.526;9.044;2023-09-19T07:24:47;17.89;83.27
69084;SHT31;56185;48.526;9.044;2023-09-19T07:27:16;17.80;83.48
69084;SHT31;56185;48.526;9.044;2023-09-19T07:29:42;17.96;83.78
69084;SHT31;56185;48.526;9.044;2023-09-19T07:32:07;18.00;82.95
69084;SHT31;56185;48.526;9.044;2023-09-19T07:34:32;18.05;83.44
69084;SHT31;56185;48.526;9.044;2023-09-19T07:36:57;18.07;82.16
69084;SHT31;56185;48.526;9.044;2023-09-19T07:39:23;18.27;81.93
69084;SHT31;56185;48.526;9.044;2023-09-19T07:41:48;18.31;81.68
69084;SHT31;56185;48.526;9.044;2023-09-19T07:44:13;18.37;79.85
69084;SHT31;56185;48.526;9.044;2023-09-19T07:46:38;18.31;80.53
69084;SHT31;56185;48.526;9.044;2023-09-19T07:49:04;18.32;81.08
69084;SHT31;56185;48.526;9.044;2023-09-19T07:51:29;18.37;81.86
69084;SHT31;56185;48.526;9.044;2023-09-19T07:53:54;18.37;80.34
69084;SHT31;56185;48.526;9.044;2023-09-19T07:56:19;18.21;81.28
69084;SHT31;56185;48.526;9.044;2023-09-19T07:58:45;18.28;81.81
69084;SHT31;56185;48.526;9.044;2023-09-19T08:01:10;18.25;81.27
69084;SHT31;56185;48.526;9.044;2023-09-19T08:03:36;18.20;80.90
69084;SHT31;56185;48.526;9.044;2023-09-19T08:06:02;18.20;79.63
69084;SHT31;56185;48.526;9.044;2023-09-19T08:08:27;18.11;77.78
69084;SHT31;56185;48.526;9.044;2023-09-19T08:10:56;18.25;77.24
69084;SHT31;56185;48.526;9.044;2023-09-19T08:13:25;18.24;76.93
69084;SHT31;56185;48.526;9.044;2023-09-19T08:15:53;18.41;76.80
69084;SHT31;56185;48.526;9.044;2023-09-19T08:18:19;18.47;77.53
69084;SHT31;56185;48.526;9.044;2023-09-19T08:20:51;18.49;76.47
69084;SHT31;56185;48.526;9.044;2023-09-19T08:23:17;18.58;76.30
69084;SHT31;56185;48.526;9.044;2023-09-19T08:25:42;18.60;76.02
69084;SHT31;56185;48.526;9.044;2023-09-19T08:28:08;18.60;75.95
69084;SHT31;56185;48.526;9.044;2023-09-19T08:30:33;18.63;74.83
69084;SHT31;56185;48.526;9.044;2023-09-19T08:32:59;18.56;75.46
69084;SHT31;56185;48.526;9.044;2023-09-19T08:35:25;18.56;76.10
69084;SHT31;56185;48.526;9.044;2023-09-19T08:37:50;18.48;74.93
69084;SHT31;56185;48.526;9.044;2023-09-19T08:40:16;18.56;75.81
69084;SHT31;56185;48.526;9.044;2023-09-19T08:42:54;18.55;74.42
69084;SHT31;56185;48.526;9.044;2023-09-19T08:45:22;18.48;74.24
69084;SHT31;56185;48.526;9.044;2023-09-19T08:48:03;18.60;74.08
69084;SHT31;56185;48.526;9.044;2023-09-19T08:50:33;18.62;74.54
69084;SHT31;56185;48.526;9.044;2023-09-19T08:53:11;18.66;75.82
69084;SHT31;56185;48.526;9.044;2023-09-19T08:55:41;18.76;74.67
69084;SHT31;56185;48.526;9.044;2023-09-19T08:58:10;18.76;73.13
69084;SHT31;56185;48.526;9.044;2023-09-19T09:00:36;18.75;73.76
69084;SHT31;56185;48.526;9.044;2023-09-19T09:03:03;18.82;73.32
69084;SHT31;56185;48.526;9.044;2023-09-19T09:05:29;18.68;74.19
69084;SHT31;56185;48.526;9.044;2023-09-19T09:07:55;18.82;72.63
69084;SHT31;56185;48.526;9.044;2023-09-19T09:10:22;18.85;74.27
69084;SHT31;56185;48.526;9.044;2023-09-19T09:12:57;18.87;73.50
69084;SHT31;56185;48.526;9.044;2023-09-19T09:15:23;18.85;71.31
69084;SHT31;56185;48.526;9.044;2023-09-19T09:17:51;18.89;72.36
69084;SHT31;56185;48.526;9.044;2023-09-19T09:20:17;18.93;72.11
69084;SHT31;56185;48.526;9.044;2023-09-19T09:22:52;18.86;72.22
69084;SHT31;56185;48.526;9.044;2023-09-19T09:25:18;18.85;70.78
69084;SHT31;56185;48.526;9.044;2023-09-19T09:27:46;18.87;71.08
69084;SHT31;56185;48.526;9.044;2023-09-19T09:30:36;19.17;68.98
69084;SHT31;56185;48.526;9.044;2023-09-19T09:33:09;19.13;69.22
69084;SHT31;56185;48.526;9.044;2023-09-19T09:35:35;19.34;68.55
69084;SHT31;56185;48.526;9.044;2023-09-19T09:38:00;19.37;68.85
69084;SHT31;56185;48.526;9.044;2023-09-19T09:40:45;19.44;68.60
69084;SHT31;56185;48.526;9.044;2023-09-19T09:43:34;19.37;67.61
69084;SHT31;56185;48.526;9.044;2023-09-19T09:46:11;19.68;65.35
69084;SHT31;56185;48.526;9.044;2023-09-19T09:48:37;19.75;64.38
69084;SHT31;56185;48.526;9.044;2023-09-19T09:51:02;20.00;63.99
69084;SHT31;56185;48.526;9.044;2023-09-19T09:53:30;20.22;65.53
69084;SHT31;56185;48.526;9.044;2023-09-19T09:56:08;20.48;63.91
69084;SHT31;56185;48.526;9.044;2023-09-19T09:58:34;20.74;61.89
69084;SHT31;56185;48.526;9.044;2023-09-19T10:01:00;20.80;60.92
69084;SHT31;56185;48.526;9.044;2023-09-19T10:03:33;20.92;59.26
69084;SHT31;56185;48.526;9.044;2023-09-19T10:05:58;20.88;58.46
69084;SHT31;56185;48.526;9.044;2023-09-19T10:08:26;20.96;58.54
69084;SHT31;56185;48.526;9.044;2023-09-19T10:10:52;21.02;59.14
69084;SHT31;56185;48.526;9.044;2023-09-19T10:13:19;20.98;59.84
69084;SHT31;56185;48.526;9.044;2023-09-19T10:15:48;21.11;59.24
69084;SHT31;56185;48.526;9.044;2023-09-19T10:18:14;21.29;59.11
69084;SHT31;56185;48.526;9.044;2023-09-19T10:20:40;21.22;57.44
69084;SHT31;56185;48.526;9.044;2023-09-19T10:23:07;21.42;57.24
69084;SHT31;56185;48.526;9.044;2023-09-19T10:25:36;21.53;55.50
69084;SHT31;56185;48.526;9.044;2023-09-19T10:28:01;21.52;55.78
69084;SHT31;56185;48.526;9.044;2023-09-19T10:30:28;21.49;55.26
69084;SHT31;56185;48.526;9.044;2023-09-19T10:32:59;21.57;55.81
69084;SHT31;56185;48.526;9.044;2023-09-19T10:35:25;21.35;57.16
69084;SHT31;56185;48.526;9.044;2023-09-19T10:37:51;21.33;56.70
69084;SHT31;56185;48.526;9.044;2023-09-19T10:40:22;21.41;56.33
69084;SHT31;56185;48.526;9.044;2023-09-19T10:42:48;21.41;57.54
69084;SHT31;56185;48.526;9.044;2023-09-19T10:45:16;21.52;57.33
69084;SHT31;56185;48.526;9.044;2023-09-19T10:47:42;21.39;58.31
69084;SHT31;56185;48.526;9.044;2023-09-19T10:50:07;21.25;56.26
69084;SHT31;56185;48.526;9.044;2023-09-19T10:52:33;21.19;58.22
69084;SHT31;56185;48.526;9.044;2023-09-19T10:54:59;21.28;58.94
69084;SHT31;56185;48.526;9.044;2023-09-19T10:57:25;21.14;56.68
69084;SHT31;56185;48.526;9.044;2023-09-19T11:00:04;21.09;57.47
69084;SHT31;56185;48.526;9.044;2023-09-19T11:02:30;21.28;55.44
69084;SHT31;56185;48.526;9.044;2023-09-19T11:05:11;21.35;56.15
69084;SHT31;56185;48.526;9.044;2023-09-19T11:07:56;21.55;56.30
69084;SHT31;56185;48.526;9.044;2023-09-19T11:10:50;21.72;55.50
69084;SHT31;56185;48.526;9.044;2023-09-19T11:13:31;22.01;54.85
69084;SHT31;56185;48.526;9.044;2023-09-19T11:21:38;22.05;53.45
69084;SHT31;56185;48.526;9.044;2023-09-19T11:26:43;21.93;53.73
69084;SHT31;56185;48.526;9.044;2023-09-19T11:29:24;21.97;54.16
69084;SHT31;56185;48.526;9.044;2023-09-19T11:31:50;22.34;53.83
69084;SHT31;56185;48.526;9.044;2023-09-19T11:34:38;22.52;54.01
69084;SHT31;56185;48.526;9.044;2023-09-19T11:39:35;22.81;51.76
69084;SHT31;56185;48.526;9.044;2023-09-19T11:42:00;22.93;51.60
69084;SHT31;56185;48.526;9.044;2023-09-19T11:49:16;22.99;52.34
69084;SHT31;56185;48.526;9.044;2023-09-19T11:51:42;22.93;52.27
69084;SHT31;56185;48.526;9.044;2023-09-19T11:54:11;22.88;51.47
69084;SHT31;56185;48.526;9.044;2023-09-19T11:56:38;22.96;51.30
69084;SHT31;56185;48.526;9.044;2023-09-19T11:59:04;23.14;52.32
69084;SHT31;56185;48.526;9.044;2023-09-19T12:01:31;23.31;51.48
69084;SHT31;56185;48.526;9.044;2023-09-19T12:03:58;23.49;51.07
69084;SHT31;56185;48.526;9.044;2023-09-19T12:06:28;23.60;48.51
69084;SHT31;56185;48.526;9.044;2023-09-19T12:08:54;23.74;49.33
69084;SHT31;56185;48.526;9.044;2023-09-19T12:11:21;23.67;48.31
69084;SHT31;56185;48.526;9.044;2023-09-19T12:13:47;23.78;48.27
69084;SHT31;56185;48.526;9.044;2023-09-19T12:16:22;23.94;49.41
69084;SHT31;56185;48.526;9.044;2023-09-19T12:18:49;23.81;48.05
69084;SHT31;56185;48.526;9.044;2023-09-19T12:21:30;23.72;47.37
69084;SHT31;56185;48.526;9.044;2023-09-19T12:23:58;23.88;48.71
69084;SHT31;56185;48.526;9.044;2023-09-19T12:26:23;23.89;47.46
69084;SHT31;56185;48.526;9.044;2023-09-19T12:28:48;24.06;47.96
69084;SHT31;56185;48.526;9.044;2023-09-19T12:31:14;24.02;47.83
69084;SHT31;56185;48.526;9.044;2023-09-19T12:33:39;24.15;48.70
69084;SHT31;56185;48.526;9.044;2023-09-19T12:36:23;24.18;48.44
69084;SHT31;56185;48.526;9.044;2023-09-19T12:38:48;24.33;49.29
69084;SHT31;56185;48.526;9.044;2023-09-19T12:41:14;24.12;47.35
69084;SHT31;56185;48.526;9.044;2023-09-19T12:43:39;24.19;47.87
69084;SHT31;56185;48.526;9.044;2023-09-19T12:46:05;24.28;46.90
69084;SHT31;56185;48.526;9.044;2023-09-19T12:48:30;24.39;46.96
69084;SHT31;56185;48.526;9.044;2023-09-19T12:53:30;24.55;47.34
69084;SHT31;56185;48.526;9.044;2023-09-19T12:55:59;24.52;47.52
69084;SHT31;56185;48.526;9.044;2023-09-19T12:58:24;24.39;48.30
69084;SHT31;56185;48.526;9.044;2023-09-19T13:00:56;24.47;47.21
69084;SHT31;56185;48.526;9.044;2023-09-19T13:08:25;24.84;46.26
69084;SHT31;56185;48.526;9.044;2023-09-19T13:11:13;24.78;47.14
69084;SHT31;56185;48.526;9.044;2023-09-19T13:16:11;25.10;47.06
69084;SHT31;56185;48.526;9.044;2023-09-19T13:19:03;25.18;46.12
69084;SHT31;56185;48.526;9.044;2023-09-19T13:21:31;24.97;45.74
69084;SHT31;56185;48.526;9.044;2023-09-19T13:26:45;25.04;45.51
69084;SHT31;56185;48.526;9.044;2023-09-19T13:29:10;24.92;45.42
69084;SHT31;56185;48.526;9.044;2023-09-19T13:31:35;24.88;45.86
69084;SHT31;56185;48.526;9.044;2023-09-19T13:34:00;24.98;45.61
69084;SHT31;56185;48.526;9.044;2023-09-19T13:36:26;24.81;46.78
69084;SHT31;56185;48.526;9.044;2023-09-19T13:38:51;24.87;46.70
69084;SHT31;56185;48.526;9.044;2023-09-19T13:41:16;25.07;46.15
69084;SHT31;56185;48.526;9.044;2023-09-19T13:43:41;24.94;45.88
69084;SHT31;56185;48.526;9.044;2023-09-19T13:46:07;24.71;44.93
69084;SHT31;56185;48.526;9.044;2023-09-19T13:48:32;24.91;45.72
69084;SHT31;56185;48.526;9.044;2023-09-19T13:50:57;24.92;45.70
69084;SHT31;56185;48.526;9.044;2023-09-19T13:53:22;24.91;45.44
69084;SHT31;56185;48.526;9.044;2023-09-19T13:55:48;24.88;46.03
69084;SHT31;56185;48.526;9.044;2023-09-19T13:58:13;24.90;46.87
69084;SHT31;56185;48.526;9.044;2023-09-19T14:00:38;24.87;46.47
69084;SHT31;56185;48.526;9.044;2023-09-19T14:03:04;24.74;45.55
69084;SHT31;56185;48.526;9.044;2023-09-19T14:05:29;24.67;46.32
69084;SHT31;56185;48.526;9.044;2023-09-19T14:07:54;24.70;47.43
69084;SHT31;56185;48.526;9.044;2023-09-19T14:10:19;24.74;46.73
69084;SHT31;56185;48.526;9.044;2023-09-19T14:12:45;24.92;46.46
69084;SHT31;56185;48.526;9.044;2023-09-19T14:15:10;24.76;44.16
69084;SHT31;56185;48.526;9.044;2023-09-19T14:17:36;25.15;45.03
69084;SHT31;56185;48.526;9.044;2023-09-19T14:20:01;25.05;44.13
69084;SHT31;56185;48.526;9.044;2023-09-19T14:22:26;24.91;43.38
69084;SHT31;56185;48.526;9.044;2023-09-19T14:24:52;25.04;43.37
69084;SHT31;56185;48.526;9.044;2023-09-19T14:27:17;25.05;42.82
69084;SHT31;56185;48.526;9.044;2023-09-19T14:29:42;24.80;43.42
69084;SHT31;56185;48.526;9.044;2023-09-19T14:32:07;24.87;42.80
69084;SHT31;56185;48.526;9.044;2023-09-19T14:34:33;24.97;43.13
69084;SHT31;56185;48.526;9.044;2023-09-19T14:36:58;24.95;43.79
69084;SHT31;56185;48.526;9.044;2023-09-19T14:39:24;24.57;44.26
69084;SHT31;56185;48.526;9.044;2023-09-19T14:41:49;24.60;43.98
69084;SHT31;56185;48.526;9.044;2023-09-19T14:44:14;24.74;44.21
69084;SHT31;56185;48.526;9.044;2023-09-19T14:46:39;24.64;44.45
69084;SHT31;56185;48.526;9.044;2023-09-19T14:49:05;24.63;43.75
69084;SHT31;56185;48.526;9.044;2023-09-19T14:51:30;24.57;43.54
69084;SHT31;56185;48.526;9.044;2023-09-19T14:53:55;24.36;43.31
69084;SHT31;56185;48.526;9.044;2023-09-19T14:56:21;24.66;44.39
69084;SHT31;56185;48.526;9.044;2023-09-19T14:58:46;24.84;44.61
69084;SHT31;56185;48.526;9.044;2023-09-19T15:01:13;24.88;43.66
69084;SHT31;56185;48.526;9.044;2023-09-19T15:03:39;25.08;43.58
69084;SHT31;56185;48.526;9.044;2023-09-19T15:06:07;25.08;44.03
69084;SHT31;56185;48.526;9.044;2023-09-19T15:08:34;25.22;42.72
69084;SHT31;56185;48.526;9.044;2023-09-19T15:10:59;25.18;43.00
69084;SHT31;56185;48.526;9.044;2023-09-19T15:13:24;25.04;43.80
69084;SHT31;56185;48.526;9.044;2023-09-19T15:15:50;25.18;43.37
69084;SHT31;56185;48.526;9.044;2023-09-19T15:18:16;25.12;42.72
69084;SHT31;56185;48.526;9.044;2023-09-19T15:20:44;25.14;43.38
69084;SHT31;56185;48.526;9.044;2023-09-19T15:23:10;25.19;41.55
69084;SHT31;56185;48.526;9.044;2023-09-19T15:25:35;25.17;42.09
69084;SHT31;56185;48.526;9.044;2023-09-19T15:28:00;25.22;41.85
69084;SHT31;56185;48.526;9.044;2023-09-19T15:30:26;25.05;42.49
69084;SHT31;56185;48.526;9.044;2023-09-19T15:32:51;25.25;43.15
69084;SHT31;56185;48.526;9.044;2023-09-19T15:35:16;25.17;42.27
69084;SHT31;56185;48.526;9.044;2023-09-19T15:37:41;25.18;42.94
69084;SHT31;56185;48.526;9.044;2023-09-19T15:40:07;25.08;42.81
69084;SHT31;56185;48.526;9.044;2023-09-19T15:42:32;25.01;42.17
69084;SHT31;56185;48.526;9.044;2023-09-19T15:44:57;24.91;43.04
69084;SHT31;56185;48.526;9.044;2023-09-19T15:47:23;25.07;43.39
69084;SHT31;56185;48.526;9.044;2023-09-19T15:49:48;24.95;44.36
69084;SHT31;56185;48.526;9.044;2023-09-19T15:52:13;24.90;44.44
69084;SHT31;56185;48.526;9.044;2023-09-19T15:54:38;24.88;44.39
69084;SHT31;56185;48.526;9.044;2023-09-19T15:57:04;24.68;42.93
69084;SHT31;56185;48.526;9.044;2023-09-19T15:59:29;24.60;43.01
69084;SHT31;56185;48.526;9.044;2023-09-19T16:01:54;24.49;44.34
69084;SHT31;56185;48.526;9.044;2023-09-19T16:04:19;24.44;43.93
69084;SHT31;56185;48.526;9.044;2023-09-19T16:06:44;24.35;43.50
69084;SHT31;56185;48.526;9.044;2023-09-19T16:14:04;24.08;44.30
69084;SHT31;56185;48.526;9.044;2023-09-19T16:16:30;24.02;43.57